Terminal Aerodrome Forecast
Issued by NWS

Home | Current Version | Previous Version | Text Only | Print | Product List | Glossary On
Versions: 1 2 3 4 5 6 7 8 9 10 11 12 13 14 15 16
000
FTUS45 KRIW 270500
TAFBPI
TAF
KBPI 270531Z 2706/2806 35007KT P6SM VCSH SCT025 BKN040
     FM271000 VRB04KT P6SM VCFG FEW015 BKN040
      TEMPO 2710/2714 2SM BR BKN015
     FM271800 VRB05KT P6SM BKN070
     FM280000 VRB05KT P6SM FEW070=

USA.gov is the U.S. government's official web portal to all federal, state and local government web resources and services.